sensor_id;sensor_type;location;lat;lon;timestamp;P1;durP1;ratioP1;P2;durP2;ratioP2
40649;SDS011;26342;42.826;23.992;2022-11-11T00:01:22;4.18;;;3.28;;
40649;SDS011;26342;42.826;23.992;2022-11-11T00:03:47;4.80;;;3.28;;
40649;SDS011;26342;42.826;23.992;2022-11-11T00:06:13;8.10;;;3.90;;
40649;SDS011;26342;42.826;23.992;2022-11-11T00:08:40;4.07;;;3.03;;
40649;SDS011;26342;42.826;23.992;2022-11-11T00:11:11;5.60;;;3.92;;
40649;SDS011;26342;42.826;23.992;2022-11-11T00:13:37;11.60;;;5.38;;
40649;SDS011;26342;42.826;23.992;2022-11-11T00:16:04;4.85;;;3.58;;
40649;SDS011;26342;42.826;23.992;2022-11-11T00:18:35;5.10;;;3.78;;
40649;SDS011;26342;42.826;23.992;2022-11-11T00:21:19;7.53;;;4.53;;
40649;SDS011;26342;42.826;23.992;2022-11-11T00:24:03;4.97;;;3.42;;
40649;SDS011;26342;42.826;23.992;2022-11-11T00:26:48;7.18;;;4.47;;
40649;SDS011;26342;42.826;23.992;2022-11-11T00:29:14;4.65;;;3.40;;
40649;SDS011;26342;42.826;23.992;2022-11-11T00:31:39;5.22;;;4.25;;
40649;SDS011;26342;42.826;23.992;2022-11-11T00:34:24;3.35;;;2.42;;
40649;SDS011;26342;42.826;23.992;2022-11-11T00:36:50;8.05;;;3.10;;
40649;SDS011;26342;42.826;23.992;2022-11-11T00:39:15;5.30;;;3.65;;
40649;SDS011;26342;42.826;23.992;2022-11-11T00:41:41;8.82;;;4.13;;
40649;SDS011;26342;42.826;23.992;2022-11-11T00:44:06;4.45;;;3.42;;
40649;SDS011;26342;42.826;23.992;2022-11-11T00:46:32;7.70;;;3.13;;
40649;SDS011;26342;42.826;23.992;2022-11-11T00:49:16;5.78;;;3.10;;
40649;SDS011;26342;42.826;23.992;2022-11-11T00:51:59;4.85;;;3.65;;
40649;SDS011;26342;42.826;23.992;2022-11-11T00:54:25;6.20;;;5.25;;
40649;SDS011;26342;42.826;23.992;2022-11-11T00:56:50;5.90;;;5.03;;
40649;SDS011;26342;42.826;23.992;2022-11-11T00:59:16;12.20;;;4.57;;
40649;SDS011;26342;42.826;23.992;2022-11-11T01:01:41;3.35;;;2.42;;
40649;SDS011;26342;42.826;23.992;2022-11-11T01:04:06;4.80;;;3.42;;
40649;SDS011;26342;42.826;23.992;2022-11-11T01:06:32;4.80;;;3.17;;
40649;SDS011;26342;42.826;23.992;2022-11-11T01:08:57;8.55;;;4.70;;
40649;SDS011;26342;42.826;23.992;2022-11-11T01:11:28;3.20;;;2.90;;
40649;SDS011;26342;42.826;23.992;2022-11-11T01:13:53;7.30;;;5.70;;
40649;SDS011;26342;42.826;23.992;2022-11-11T01:16:20;5.35;;;4.28;;
40649;SDS011;26342;42.826;23.992;2022-11-11T01:18:47;6.13;;;5.53;;
40649;SDS011;26342;42.826;23.992;2022-11-11T01:23:41;4.78;;;3.90;;
40649;SDS011;26342;42.826;23.992;2022-11-11T01:26:24;5.63;;;4.75;;
40649;SDS011;26342;42.826;23.992;2022-11-11T01:28:52;9.85;;;3.78;;
40649;SDS011;26342;42.826;23.992;2022-11-11T01:31:19;7.45;;;5.45;;
40649;SDS011;26342;42.826;23.992;2022-11-11T01:33:46;13.85;;;8.45;;
40649;SDS011;26342;42.826;23.992;2022-11-11T01:38:43;10.52;;;6.35;;
40649;SDS011;26342;42.826;23.992;2022-11-11T01:41:14;21.42;;;5.65;;
40649;SDS011;26342;42.826;23.992;2022-11-11T01:46:25;4.25;;;2.85;;
40649;SDS011;26342;42.826;23.992;2022-11-11T01:49:08;6.20;;;4.28;;
40649;SDS011;26342;42.826;23.992;2022-11-11T01:54:22;5.07;;;3.30;;
40649;SDS011;26342;42.826;23.992;2022-11-11T01:57:01;4.72;;;3.20;;
40649;SDS011;26342;42.826;23.992;2022-11-11T01:59:33;3.28;;;2.95;;
40649;SDS011;26342;42.826;23.992;2022-11-11T02:02:02;3.17;;;2.05;;
40649;SDS011;26342;42.826;23.992;2022-11-11T02:04:34;9.15;;;4.32;;
40649;SDS011;26342;42.826;23.992;2022-11-11T02:07:19;6.93;;;3.75;;
40649;SDS011;26342;42.826;23.992;2022-11-11T02:09:46;5.00;;;2.70;;
40649;SDS011;26342;42.826;23.992;2022-11-11T02:12:12;3.28;;;2.47;;
40649;SDS011;26342;42.826;23.992;2022-11-11T02:14:57;4.80;;;3.78;;
40649;SDS011;26342;42.826;23.992;2022-11-11T02:17:25;3.05;;;2.45;;
40649;SDS011;26342;42.826;23.992;2022-11-11T02:19:53;4.78;;;3.53;;
40649;SDS011;26342;42.826;23.992;2022-11-11T02:22:30;6.25;;;3.20;;
40649;SDS011;26342;42.826;23.992;2022-11-11T02:25:01;8.23;;;4.10;;
40649;SDS011;26342;42.826;23.992;2022-11-11T02:27:29;12.45;;;3.65;;
40649;SDS011;26342;42.826;23.992;2022-11-11T02:29:57;4.43;;;3.45;;
40649;SDS011;26342;42.826;23.992;2022-11-11T02:32:25;4.22;;;2.67;;
40649;SDS011;26342;42.826;23.992;2022-11-11T02:34:50;8.77;;;4.95;;
40649;SDS011;26342;42.826;23.992;2022-11-11T02:37:18;6.68;;;4.15;;
40649;SDS011;26342;42.826;23.992;2022-11-11T02:39:46;5.47;;;3.95;;
40649;SDS011;26342;42.826;23.992;2022-11-11T02:42:14;6.72;;;3.70;;
40649;SDS011;26342;42.826;23.992;2022-11-11T02:44:41;4.60;;;3.13;;
40649;SDS011;26342;42.826;23.992;2022-11-11T02:47:07;8.00;;;5.00;;
40649;SDS011;26342;42.826;23.992;2022-11-11T02:49:32;10.18;;;5.95;;
40649;SDS011;26342;42.826;23.992;2022-11-11T02:51:57;9.48;;;4.95;;
40649;SDS011;26342;42.826;23.992;2022-11-11T02:54:23;7.78;;;5.63;;
40649;SDS011;26342;42.826;23.992;2022-11-11T02:56:48;6.95;;;4.60;;
40649;SDS011;26342;42.826;23.992;2022-11-11T02:59:33;4.88;;;3.63;;
40649;SDS011;26342;42.826;23.992;2022-11-11T03:02:03;6.85;;;5.43;;
40649;SDS011;26342;42.826;23.992;2022-11-11T03:04:29;13.18;;;4.38;;
40649;SDS011;26342;42.826;23.992;2022-11-11T03:06:54;5.25;;;4.05;;
40649;SDS011;26342;42.826;23.992;2022-11-11T03:09:19;5.05;;;4.47;;
40649;SDS011;26342;42.826;23.992;2022-11-11T03:11:45;16.02;;;4.68;;
40649;SDS011;26342;42.826;23.992;2022-11-11T03:14:10;12.30;;;4.80;;
40649;SDS011;26342;42.826;23.992;2022-11-11T03:16:36;6.97;;;4.55;;
40649;SDS011;26342;42.826;23.992;2022-11-11T03:19:20;10.43;;;5.32;;
40649;SDS011;26342;42.826;23.992;2022-11-11T03:21:45;5.82;;;4.70;;
40649;SDS011;26342;42.826;23.992;2022-11-11T03:24:11;4.35;;;3.15;;
40649;SDS011;26342;42.826;23.992;2022-11-11T03:26:36;11.27;;;5.22;;
40649;SDS011;26342;42.826;23.992;2022-11-11T03:29:02;9.25;;;6.82;;
40649;SDS011;26342;42.826;23.992;2022-11-11T03:31:28;6.63;;;4.78;;
40649;SDS011;26342;42.826;23.992;2022-11-11T03:33:53;8.88;;;6.32;;
40649;SDS011;26342;42.826;23.992;2022-11-11T03:36:19;10.93;;;6.38;;
40649;SDS011;26342;42.826;23.992;2022-11-11T03:38:44;6.13;;;4.80;;
40649;SDS011;26342;42.826;23.992;2022-11-11T03:41:09;8.18;;;4.03;;
40649;SDS011;26342;42.826;23.992;2022-11-11T03:43:35;4.60;;;3.67;;
40649;SDS011;26342;42.826;23.992;2022-11-11T03:46:01;4.47;;;3.33;;
40649;SDS011;26342;42.826;23.992;2022-11-11T03:48:30;5.78;;;3.85;;
40649;SDS011;26342;42.826;23.992;2022-11-11T03:50:57;4.35;;;3.92;;
40649;SDS011;26342;42.826;23.992;2022-11-11T03:53:22;2.92;;;2.63;;
40649;SDS011;26342;42.826;23.992;2022-11-11T03:55:48;5.47;;;3.83;;
40649;SDS011;26342;42.826;23.992;2022-11-11T03:58:15;2.42;;;2.08;;
40649;SDS011;26342;42.826;23.992;2022-11-11T04:00:40;5.55;;;4.05;;
40649;SDS011;26342;42.826;23.992;2022-11-11T04:03:09;5.20;;;4.63;;
40649;SDS011;26342;42.826;23.992;2022-11-11T04:05:54;4.22;;;3.05;;
40649;SDS011;26342;42.826;23.992;2022-11-11T04:08:38;3.88;;;2.92;;
40649;SDS011;26342;42.826;23.992;2022-11-11T04:11:29;4.78;;;2.42;;
40649;SDS011;26342;42.826;23.992;2022-11-11T04:13:58;2.70;;;2.42;;
40649;SDS011;26342;42.826;23.992;2022-11-11T04:16:49;8.38;;;3.35;;
40649;SDS011;26342;42.826;23.992;2022-11-11T04:19:14;3.30;;;1.90;;
40649;SDS011;26342;42.826;23.992;2022-11-11T04:21:58;2.22;;;1.98;;
40649;SDS011;26342;42.826;23.992;2022-11-11T04:24:24;3.40;;;2.72;;
40649;SDS011;26342;42.826;23.992;2022-11-11T04:27:08;3.47;;;2.65;;
40649;SDS011;26342;42.826;23.992;2022-11-11T04:29:36;3.25;;;2.70;;
40649;SDS011;26342;42.826;23.992;2022-11-11T04:32:06;1.73;;;1.27;;
40649;SDS011;26342;42.826;23.992;2022-11-11T04:34:52;8.38;;;3.92;;
40649;SDS011;26342;42.826;23.992;2022-11-11T04:37:20;2.38;;;2.28;;
40649;SDS011;26342;42.826;23.992;2022-11-11T04:39:47;4.95;;;4.18;;
40649;SDS011;26342;42.826;23.992;2022-11-11T04:42:31;3.70;;;3.05;;
40649;SDS011;26342;42.826;23.992;2022-11-11T04:44:57;7.35;;;3.67;;
40649;SDS011;26342;42.826;23.992;2022-11-11T04:47:54;10.70;;;5.10;;
40649;SDS011;26342;42.826;23.992;2022-11-11T04:50:22;2.42;;;1.77;;
40649;SDS011;26342;42.826;23.992;2022-11-11T04:52:48;4.38;;;3.53;;
40649;SDS011;26342;42.826;23.992;2022-11-11T04:55:13;3.33;;;2.90;;
40649;SDS011;26342;42.826;23.992;2022-11-11T04:57:58;5.72;;;3.72;;
40649;SDS011;26342;42.826;23.992;2022-11-11T05:00:24;4.15;;;3.55;;
40649;SDS011;26342;42.826;23.992;2022-11-11T05:02:52;6.82;;;5.00;;
40649;SDS011;26342;42.826;23.992;2022-11-11T05:05:37;7.47;;;5.35;;
40649;SDS011;26342;42.826;23.992;2022-11-11T05:08:21;8.40;;;6.43;;
40649;SDS011;26342;42.826;23.992;2022-11-11T05:11:04;11.60;;;4.57;;
40649;SDS011;26342;42.826;23.992;2022-11-11T05:13:30;7.55;;;5.22;;
40649;SDS011;26342;42.826;23.992;2022-11-11T05:16:19;10.52;;;7.40;;
40649;SDS011;26342;42.826;23.992;2022-11-11T05:19:05;9.93;;;6.93;;
40649;SDS011;26342;42.826;23.992;2022-11-11T05:21:50;7.60;;;6.78;;
40649;SDS011;26342;42.826;23.992;2022-11-11T05:24:20;10.98;;;6.80;;
40649;SDS011;26342;42.826;23.992;2022-11-11T05:27:04;8.93;;;5.85;;
40649;SDS011;26342;42.826;23.992;2022-11-11T05:29:29;11.90;;;6.50;;
40649;SDS011;26342;42.826;23.992;2022-11-11T05:31:54;7.95;;;5.85;;
40649;SDS011;26342;42.826;23.992;2022-11-11T05:34:20;7.47;;;4.07;;
40649;SDS011;26342;42.826;23.992;2022-11-11T05:36:45;6.00;;;4.07;;
40649;SDS011;26342;42.826;23.992;2022-11-11T05:39:10;14.88;;;7.43;;
40649;SDS011;26342;42.826;23.992;2022-11-11T05:41:37;6.15;;;4.68;;
40649;SDS011;26342;42.826;23.992;2022-11-11T05:44:02;16.90;;;8.65;;
40649;SDS011;26342;42.826;23.992;2022-11-11T05:46:28;10.90;;;7.10;;
40649;SDS011;26342;42.826;23.992;2022-11-11T05:48:53;9.38;;;6.45;;
40649;SDS011;26342;42.826;23.992;2022-11-11T05:51:39;6.93;;;4.20;;
40649;SDS011;26342;42.826;23.992;2022-11-11T05:54:04;5.05;;;4.57;;
40649;SDS011;26342;42.826;23.992;2022-11-11T05:56:30;6.95;;;4.50;;
40649;SDS011;26342;42.826;23.992;2022-11-11T05:58:55;4.60;;;3.85;;
40649;SDS011;26342;42.826;23.992;2022-11-11T06:01:20;9.07;;;6.82;;
40649;SDS011;26342;42.826;23.992;2022-11-11T06:03:46;8.98;;;6.10;;
40649;SDS011;26342;42.826;23.992;2022-11-11T06:06:11;8.02;;;7.03;;
40649;SDS011;26342;42.826;23.992;2022-11-11T06:08:37;11.85;;;6.32;;
40649;SDS011;26342;42.826;23.992;2022-11-11T06:11:02;6.35;;;5.25;;
40649;SDS011;26342;42.826;23.992;2022-11-11T06:13:28;12.38;;;8.30;;
40649;SDS011;26342;42.826;23.992;2022-11-11T06:15:54;29.75;;;17.15;;
40649;SDS011;26342;42.826;23.992;2022-11-11T06:18:21;55.67;;;26.58;;
40649;SDS011;26342;42.826;23.992;2022-11-11T06:20:51;82.85;;;32.85;;
40649;SDS011;26342;42.826;23.992;2022-11-11T06:23:20;18.50;;;12.40;;
40649;SDS011;26342;42.826;23.992;2022-11-11T06:25:46;26.88;;;16.85;;
40649;SDS011;26342;42.826;23.992;2022-11-11T06:28:31;17.70;;;7.80;;
40649;SDS011;26342;42.826;23.992;2022-11-11T06:30:56;11.15;;;7.22;;
40649;SDS011;26342;42.826;23.992;2022-11-11T06:33:22;12.65;;;6.60;;
40649;SDS011;26342;42.826;23.992;2022-11-11T06:35:47;15.95;;;8.55;;
40649;SDS011;26342;42.826;23.992;2022-11-11T06:38:13;16.05;;;10.05;;
40649;SDS011;26342;42.826;23.992;2022-11-11T06:40:38;9.02;;;7.07;;
40649;SDS011;26342;42.826;23.992;2022-11-11T06:43:04;10.80;;;6.55;;
40649;SDS011;26342;42.826;23.992;2022-11-11T06:45:30;12.43;;;7.75;;
40649;SDS011;26342;42.826;23.992;2022-11-11T06:47:57;7.68;;;6.22;;
40649;SDS011;26342;42.826;23.992;2022-11-11T06:50:22;9.82;;;5.18;;
40649;SDS011;26342;42.826;23.992;2022-11-11T06:52:48;10.68;;;7.00;;
40649;SDS011;26342;42.826;23.992;2022-11-11T06:55:13;19.05;;;7.95;;
40649;SDS011;26342;42.826;23.992;2022-11-11T06:57:39;19.08;;;7.55;;
40649;SDS011;26342;42.826;23.992;2022-11-11T07:00:04;11.13;;;8.65;;
40649;SDS011;26342;42.826;23.992;2022-11-11T07:02:31;10.57;;;6.40;;
40649;SDS011;26342;42.826;23.992;2022-11-11T07:04:57;16.98;;;8.95;;
40649;SDS011;26342;42.826;23.992;2022-11-11T07:07:24;11.73;;;7.90;;
40649;SDS011;26342;42.826;23.992;2022-11-11T07:09:49;11.13;;;7.40;;
40649;SDS011;26342;42.826;23.992;2022-11-11T07:12:14;28.65;;;16.38;;
40649;SDS011;26342;42.826;23.992;2022-11-11T07:14:40;17.88;;;10.35;;
40649;SDS011;26342;42.826;23.992;2022-11-11T07:17:05;16.70;;;9.88;;
40649;SDS011;26342;42.826;23.992;2022-11-11T07:19:31;19.67;;;9.60;;
40649;SDS011;26342;42.826;23.992;2022-11-11T07:21:56;27.10;;;10.68;;
40649;SDS011;26342;42.826;23.992;2022-11-11T07:24:22;10.63;;;7.72;;
40649;SDS011;26342;42.826;23.992;2022-11-11T07:26:47;19.02;;;9.63;;
40649;SDS011;26342;42.826;23.992;2022-11-11T07:29:13;13.35;;;10.10;;
40649;SDS011;26342;42.826;23.992;2022-11-11T07:31:39;21.63;;;11.48;;
40649;SDS011;26342;42.826;23.992;2022-11-11T07:34:05;19.67;;;12.07;;
40649;SDS011;26342;42.826;23.992;2022-11-11T07:36:31;10.52;;;8.02;;
40649;SDS011;26342;42.826;23.992;2022-11-11T07:38:56;10.52;;;7.15;;
40649;SDS011;26342;42.826;23.992;2022-11-11T07:41:22;16.33;;;8.77;;
40649;SDS011;26342;42.826;23.992;2022-11-11T07:43:47;5.82;;;4.20;;
40649;SDS011;26342;42.826;23.992;2022-11-11T07:46:13;9.57;;;5.05;;
40649;SDS011;26342;42.826;23.992;2022-11-11T07:48:38;10.77;;;6.55;;
40649;SDS011;26342;42.826;23.992;2022-11-11T07:51:04;7.07;;;4.60;;
40649;SDS011;26342;42.826;23.992;2022-11-11T07:53:29;16.60;;;7.97;;
40649;SDS011;26342;42.826;23.992;2022-11-11T07:55:55;8.82;;;6.22;;
40649;SDS011;26342;42.826;23.992;2022-11-11T07:58:20;7.43;;;2.90;;
40649;SDS011;26342;42.826;23.992;2022-11-11T08:00:45;2.53;;;2.33;;
40649;SDS011;26342;42.826;23.992;2022-11-11T08:03:11;5.13;;;2.78;;
40649;SDS011;26342;42.826;23.992;2022-11-11T08:05:36;3.60;;;3.08;;
40649;SDS011;26342;42.826;23.992;2022-11-11T08:08:05;3.58;;;3.28;;
40649;SDS011;26342;42.826;23.992;2022-11-11T08:10:32;7.50;;;3.55;;
40649;SDS011;26342;42.826;23.992;2022-11-11T08:12:58;8.90;;;4.95;;
40649;SDS011;26342;42.826;23.992;2022-11-11T08:15:42;2.05;;;1.88;;
40649;SDS011;26342;42.826;23.992;2022-11-11T08:18:07;7.00;;;3.58;;
40649;SDS011;26342;42.826;23.992;2022-11-11T08:20:33;7.50;;;4.10;;
40649;SDS011;26342;42.826;23.992;2022-11-11T08:23:00;7.35;;;5.90;;
40649;SDS011;26342;42.826;23.992;2022-11-11T08:25:28;6.63;;;4.18;;
40649;SDS011;26342;42.826;23.992;2022-11-11T08:27:58;10.27;;;6.32;;
40649;SDS011;26342;42.826;23.992;2022-11-11T08:30:28;5.72;;;4.93;;
40649;SDS011;26342;42.826;23.992;2022-11-11T08:32:58;7.20;;;4.07;;
40649;SDS011;26342;42.826;23.992;2022-11-11T08:35:24;12.43;;;5.82;;
40649;SDS011;26342;42.826;23.992;2022-11-11T08:37:51;14.48;;;5.95;;
40649;SDS011;26342;42.826;23.992;2022-11-11T08:40:16;4.18;;;3.15;;
40649;SDS011;26342;42.826;23.992;2022-11-11T08:42:42;4.88;;;3.70;;
40649;SDS011;26342;42.826;23.992;2022-11-11T08:45:07;4.10;;;2.13;;
40649;SDS011;26342;42.826;23.992;2022-11-11T08:47:33;4.07;;;2.83;;
40649;SDS011;26342;42.826;23.992;2022-11-11T08:49:59;9.18;;;3.95;;
40649;SDS011;26342;42.826;23.992;2022-11-11T08:52:25;10.10;;;4.75;;
40649;SDS011;26342;42.826;23.992;2022-11-11T08:54:51;36.72;;;19.63;;
40649;SDS011;26342;42.826;23.992;2022-11-11T08:57:16;29.05;;;18.98;;
40649;SDS011;26342;42.826;23.992;2022-11-11T08:59:41;23.00;;;16.50;;
40649;SDS011;26342;42.826;23.992;2022-11-11T09:02:09;51.97;;;26.17;;
40649;SDS011;26342;42.826;23.992;2022-11-11T09:04:36;27.75;;;16.40;;
40649;SDS011;26342;42.826;23.992;2022-11-11T09:07:02;82.75;;;47.50;;
40649;SDS011;26342;42.826;23.992;2022-11-11T09:09:27;23.05;;;11.63;;
40649;SDS011;26342;42.826;23.992;2022-11-11T09:11:53;32.08;;;20.00;;
40649;SDS011;26342;42.826;23.992;2022-11-11T09:14:18;22.15;;;14.70;;
40649;SDS011;26342;42.826;23.992;2022-11-11T09:16:44;17.58;;;10.07;;
40649;SDS011;26342;42.826;23.992;2022-11-11T09:19:09;11.63;;;7.35;;
40649;SDS011;26342;42.826;23.992;2022-11-11T09:21:34;7.63;;;4.25;;
40649;SDS011;26342;42.826;23.992;2022-11-11T09:24:00;12.50;;;6.57;;
40649;SDS011;26342;42.826;23.992;2022-11-11T09:26:26;6.82;;;5.68;;
40649;SDS011;26342;42.826;23.992;2022-11-11T09:28:51;4.70;;;3.55;;
40649;SDS011;26342;42.826;23.992;2022-11-11T09:31:16;8.32;;;5.22;;
40649;SDS011;26342;42.826;23.992;2022-11-11T09:33:42;6.57;;;5.57;;
40649;SDS011;26342;42.826;23.992;2022-11-11T09:36:07;5.40;;;3.35;;
40649;SDS011;26342;42.826;23.992;2022-11-11T09:38:32;9.80;;;5.28;;
40649;SDS011;26342;42.826;23.992;2022-11-11T10:00:15;4.65;;;3.88;;
40649;SDS011;26342;42.826;23.992;2022-11-11T10:03:28;2.95;;;2.75;;
40649;SDS011;26342;42.826;23.992;2022-11-11T10:12:10;3.70;;;2.70;;
40649;SDS011;26342;42.826;23.992;2022-11-11T10:14:39;11.80;;;2.88;;
40649;SDS011;26342;42.826;23.992;2022-11-11T10:17:19;5.97;;;2.33;;
40649;SDS011;26342;42.826;23.992;2022-11-11T10:20:06;9.50;;;5.18;;
40649;SDS011;26342;42.826;23.992;2022-11-11T10:22:41;6.13;;;4.32;;
40649;SDS011;26342;42.826;23.992;2022-11-11T10:27:41;10.35;;;3.88;;
40649;SDS011;26342;42.826;23.992;2022-11-11T10:30:18;17.60;;;6.53;;
40649;SDS011;26342;42.826;23.992;2022-11-11T10:32:55;13.25;;;6.32;;
40649;SDS011;26342;42.826;23.992;2022-11-11T10:35:24;5.72;;;2.97;;
40649;SDS011;26342;42.826;23.992;2022-11-11T10:38:36;4.60;;;3.42;;
40649;SDS011;26342;42.826;23.992;2022-11-11T10:41:02;4.22;;;3.10;;
40649;SDS011;26342;42.826;23.992;2022-11-11T10:43:46;2.90;;;2.67;;
40649;SDS011;26342;42.826;23.992;2022-11-11T10:46:20;4.82;;;2.80;;
40649;SDS011;26342;42.826;23.992;2022-11-11T10:51:44;6.78;;;3.28;;
40649;SDS011;26342;42.826;23.992;2022-11-11T10:59:52;1.60;;;1.40;;
40649;SDS011;26342;42.826;23.992;2022-11-11T11:08:20;2.13;;;1.98;;
40649;SDS011;26342;42.826;23.992;2022-11-11T11:11:00;1.23;;;1.15;;
40649;SDS011;26342;42.826;23.992;2022-11-11T11:13:33;7.47;;;3.00;;
40649;SDS011;26342;42.826;23.992;2022-11-11T11:16:08;12.30;;;3.95;;
40649;SDS011;26342;42.826;23.992;2022-11-11T11:18:41;4.00;;;2.35;;
40649;SDS011;26342;42.826;23.992;2022-11-11T11:21:08;1.65;;;1.55;;
40649;SDS011;26342;42.826;23.992;2022-11-11T11:23:43;2.85;;;2.40;;
40649;SDS011;26342;42.826;23.992;2022-11-11T11:26:11;1.17;;;0.95;;
40649;SDS011;26342;42.826;23.992;2022-11-11T11:29:11;20.85;;;5.22;;
40649;SDS011;26342;42.826;23.992;2022-11-11T11:31:34;2.10;;;1.65;;
40649;SDS011;26342;42.826;23.992;2022-11-11T11:34:01;4.10;;;1.92;;
40649;SDS011;26342;42.826;23.992;2022-11-11T11:36:27;6.53;;;3.35;;
40649;SDS011;26342;42.826;23.992;2022-11-11T11:38:53;9.77;;;4.47;;
40649;SDS011;26342;42.826;23.992;2022-11-11T11:44:24;9.95;;;2.95;;
40649;SDS011;26342;42.826;23.992;2022-11-11T11:46:54;9.98;;;3.60;;
40649;SDS011;26342;42.826;23.992;2022-11-11T11:52:27;4.40;;;3.05;;
40649;SDS011;26342;42.826;23.992;2022-11-11T12:11:18;3.08;;;2.45;;
40649;SDS011;26342;42.826;23.992;2022-11-11T12:16:49;5.63;;;4.93;;
40649;SDS011;26342;42.826;23.992;2022-11-11T12:24:48;19.38;;;4.95;;
40649;SDS011;26342;42.826;23.992;2022-11-11T12:27:37;7.55;;;5.00;;
40649;SDS011;26342;42.826;23.992;2022-11-11T12:30:22;3.10;;;2.72;;
40649;SDS011;26342;42.826;23.992;2022-11-11T12:41:41;5.43;;;4.68;;
40649;SDS011;26342;42.826;23.992;2022-11-11T12:44:15;4.85;;;3.67;;
40649;SDS011;26342;42.826;23.992;2022-11-11T12:54:57;4.28;;;2.90;;
40649;SDS011;26342;42.826;23.992;2022-11-11T12:57:26;7.03;;;3.70;;
40649;SDS011;26342;42.826;23.992;2022-11-11T13:00:10;5.47;;;2.38;;
40649;SDS011;26342;42.826;23.992;2022-11-11T13:05:16;3.13;;;2.83;;
40649;SDS011;26342;42.826;23.992;2022-11-11T13:08:27;5.68;;;2.95;;
40649;SDS011;26342;42.826;23.992;2022-11-11T13:13:51;18.75;;;8.32;;
40649;SDS011;26342;42.826;23.992;2022-11-11T13:16:26;8.82;;;4.82;;
40649;SDS011;26342;42.826;23.992;2022-11-11T13:21:41;13.90;;;6.47;;
40649;SDS011;26342;42.826;23.992;2022-11-11T13:24:38;9.00;;;4.97;;
40649;SDS011;26342;42.826;23.992;2022-11-11T13:27:05;5.75;;;4.45;;
40649;SDS011;26342;42.826;23.992;2022-11-11T13:29:45;7.18;;;3.83;;
40649;SDS011;26342;42.826;23.992;2022-11-11T13:32:23;5.43;;;3.65;;
40649;SDS011;26342;42.826;23.992;2022-11-11T13:34:55;4.70;;;3.97;;
40649;SDS011;26342;42.826;23.992;2022-11-11T13:37:25;5.20;;;4.50;;
40649;SDS011;26342;42.826;23.992;2022-11-11T13:40:02;20.60;;;8.10;;
40649;SDS011;26342;42.826;23.992;2022-11-11T13:42:34;5.93;;;5.13;;
40649;SDS011;26342;42.826;23.992;2022-11-11T13:45:04;12.40;;;7.88;;
40649;SDS011;26342;42.826;23.992;2022-11-11T13:47:39;7.38;;;6.60;;
40649;SDS011;26342;42.826;23.992;2022-11-11T13:53:03;8.20;;;5.03;;
40649;SDS011;26342;42.826;23.992;2022-11-11T13:55:37;5.93;;;3.20;;
40649;SDS011;26342;42.826;23.992;2022-11-11T13:58:25;6.68;;;3.17;;
40649;SDS011;26342;42.826;23.992;2022-11-11T14:01:05;6.93;;;3.28;;
40649;SDS011;26342;42.826;23.992;2022-11-11T14:03:33;6.32;;;3.80;;
40649;SDS011;26342;42.826;23.992;2022-11-11T14:08:55;5.70;;;3.05;;
40649;SDS011;26342;42.826;23.992;2022-11-11T14:13:53;5.65;;;3.72;;
40649;SDS011;26342;42.826;23.992;2022-11-11T14:18:58;2.42;;;1.88;;
40649;SDS011;26342;42.826;23.992;2022-11-11T14:24:47;20.05;;;10.75;;
40649;SDS011;26342;42.826;23.992;2022-11-11T14:27:16;18.70;;;12.18;;
40649;SDS011;26342;42.826;23.992;2022-11-11T14:32:32;8.30;;;5.88;;
40649;SDS011;26342;42.826;23.992;2022-11-11T14:35:10;7.30;;;5.63;;
40649;SDS011;26342;42.826;23.992;2022-11-11T14:40:25;20.45;;;10.60;;
40649;SDS011;26342;42.826;23.992;2022-11-11T14:42:52;11.95;;;7.68;;
40649;SDS011;26342;42.826;23.992;2022-11-11T14:47:56;7.03;;;3.90;;
40649;SDS011;26342;42.826;23.992;2022-11-11T14:53:13;5.53;;;3.33;;
40649;SDS011;26342;42.826;23.992;2022-11-11T14:55:43;6.82;;;4.38;;
40649;SDS011;26342;42.826;23.992;2022-11-11T14:58:17;5.70;;;3.08;;
40649;SDS011;26342;42.826;23.992;2022-11-11T15:08:35;4.13;;;2.80;;
40649;SDS011;26342;42.826;23.992;2022-11-11T15:21:30;7.20;;;3.63;;
40649;SDS011;26342;42.826;23.992;2022-11-11T15:24:06;9.68;;;6.20;;
40649;SDS011;26342;42.826;23.992;2022-11-11T15:37:58;6.78;;;4.07;;
40649;SDS011;26342;42.826;23.992;2022-11-11T15:40:29;5.82;;;5.03;;
40649;SDS011;26342;42.826;23.992;2022-11-11T15:42:57;16.02;;;5.60;;
40649;SDS011;26342;42.826;23.992;2022-11-11T15:45:31;11.05;;;6.10;;
40649;SDS011;26342;42.826;23.992;2022-11-11T15:47:58;15.25;;;6.75;;
40649;SDS011;26342;42.826;23.992;2022-11-11T15:52:53;17.55;;;7.93;;
40649;SDS011;26342;42.826;23.992;2022-11-11T15:55:21;9.48;;;6.32;;
40649;SDS011;26342;42.826;23.992;2022-11-11T16:00:41;10.40;;;7.57;;
40649;SDS011;26342;42.826;23.992;2022-11-11T16:03:15;4.75;;;3.38;;
40649;SDS011;26342;42.826;23.992;2022-11-11T16:05:41;6.00;;;5.25;;
40649;SDS011;26342;42.826;23.992;2022-11-11T16:08:08;9.02;;;5.53;;
40649;SDS011;26342;42.826;23.992;2022-11-11T16:10:41;6.10;;;5.07;;
40649;SDS011;26342;42.826;23.992;2022-11-11T16:15:53;11.48;;;4.55;;
40649;SDS011;26342;42.826;23.992;2022-11-11T16:21:27;11.35;;;5.88;;
40649;SDS011;26342;42.826;23.992;2022-11-11T16:23:58;12.38;;;6.28;;
40649;SDS011;26342;42.826;23.992;2022-11-11T16:26:25;5.22;;;4.35;;
40649;SDS011;26342;42.826;23.992;2022-11-11T16:28:54;5.45;;;4.00;;
40649;SDS011;26342;42.826;23.992;2022-11-11T16:33:50;5.72;;;4.93;;
40649;SDS011;26342;42.826;23.992;2022-11-11T16:36:15;9.30;;;5.63;;
40649;SDS011;26342;42.826;23.992;2022-11-11T16:38:41;8.38;;;5.45;;
40649;SDS011;26342;42.826;23.992;2022-11-11T16:44:21;8.52;;;6.47;;
40649;SDS011;26342;42.826;23.992;2022-11-11T16:49:29;8.48;;;6.80;;
40649;SDS011;26342;42.826;23.992;2022-11-11T16:52:07;8.23;;;4.97;;
40649;SDS011;26342;42.826;23.992;2022-11-11T16:54:42;25.77;;;9.13;;
40649;SDS011;26342;42.826;23.992;2022-11-11T16:57:18;13.43;;;6.45;;
40649;SDS011;26342;42.826;23.992;2022-11-11T16:59:48;32.92;;;8.68;;
40649;SDS011;26342;42.826;23.992;2022-11-11T17:02:19;11.35;;;7.25;;
40649;SDS011;26342;42.826;23.992;2022-11-11T17:04:47;9.15;;;4.43;;
40649;SDS011;26342;42.826;23.992;2022-11-11T17:12:44;9.38;;;5.00;;
40649;SDS011;26342;42.826;23.992;2022-11-11T17:15:12;7.75;;;4.00;;
40649;SDS011;26342;42.826;23.992;2022-11-11T17:17:39;9.82;;;5.13;;
40649;SDS011;26342;42.826;23.992;2022-11-11T17:22:32;8.25;;;5.28;;
40649;SDS011;26342;42.826;23.992;2022-11-11T17:24:58;9.07;;;4.78;;
40649;SDS011;26342;42.826;23.992;2022-11-11T17:27:23;8.90;;;5.65;;
40649;SDS011;26342;42.826;23.992;2022-11-11T17:29:48;9.52;;;6.00;;
40649;SDS011;26342;42.826;23.992;2022-11-11T17:32:14;7.13;;;3.95;;
40649;SDS011;26342;42.826;23.992;2022-11-11T17:34:40;7.10;;;3.40;;
40649;SDS011;26342;42.826;23.992;2022-11-11T17:37:05;7.10;;;4.00;;
40649;SDS011;26342;42.826;23.992;2022-11-11T17:39:31;10.88;;;5.60;;
40649;SDS011;26342;42.826;23.992;2022-11-11T17:41:56;9.40;;;4.18;;
40649;SDS011;26342;42.826;23.992;2022-11-11T17:44:22;4.35;;;3.95;;
40649;SDS011;26342;42.826;23.992;2022-11-11T17:46:47;9.23;;;5.15;;
40649;SDS011;26342;42.826;23.992;2022-11-11T17:49:12;6.25;;;4.55;;
40649;SDS011;26342;42.826;23.992;2022-11-11T17:51:39;11.55;;;4.28;;
40649;SDS011;26342;42.826;23.992;2022-11-11T17:54:06;9.35;;;4.28;;
40649;SDS011;26342;42.826;23.992;2022-11-11T17:56:33;5.80;;;5.18;;
40649;SDS011;26342;42.826;23.992;2022-11-11T17:58:59;12.65;;;5.95;;